Time;durP1;ratioP1;P1;durP2;ratioP2;P2;SDS_P1;SDS_P2;PMS_P1;PMS_P2;Temp;Humidity;BMP_temperature;BMP_pressure;BME280_temperature;BME280_humidity;BME280_pressure;Samples;Min_cycle;Max_cycle;Signal;HPM_P1;HPM_P2
2021/05/04 00:02:17;;;;;;;11.75;10.93;;;9.10;99.90;;;;;;5051583;28;20035;-71
2021/05/04 00:04:43;;;;;;;12.05;10.85;;;9.10;99.90;;;;;;5087458;28;20428;-72
2021/05/04 00:07:10;;;;;;;11.15;10.45;;;9.10;99.90;;;;;;5035653;28;20082;-71
2021/05/04 00:09:37;;;;;;;12.13;11.18;;;9.10;99.90;;;;;;5069372;28;20091;-71
2021/05/04 00:12:04;;;;;;;11.73;10.80;;;9.10;99.90;;;;;;5068642;28;20185;-71
2021/05/04 00:14:31;;;;;;;12.23;11.35;;;9.10;99.90;;;;;;5066903;28;20109;-71
2021/05/04 00:16:58;;;;;;;11.80;10.70;;;9.10;99.90;;;;;;5051211;28;20047;-72
2021/05/04 00:19:24;;;;;;;12.25;11.20;;;9.10;99.90;;;;;;5051945;28;20443;-71
2021/05/04 00:21:51;;;;;;;12.32;11.35;;;9.10;99.90;;;;;;5067722;28;20040;-71
2021/05/04 00:24:17;;;;;;;12.00;10.95;;;9.10;99.90;;;;;;5036087;28;20136;-70
2021/05/04 00:26:43;;;;;;;11.35;10.38;;;9.10;99.90;;;;;;5051453;28;20408;-71
2021/05/04 00:29:10;;;;;;;12.45;11.35;;;9.10;99.90;;;;;;5068890;28;20133;-71
2021/05/04 00:31:37;;;;;;;11.80;11.05;;;9.10;99.90;;;;;;5067352;28;20064;-72
2021/05/04 00:34:04;;;;;;;11.70;10.82;;;9.10;99.90;;;;;;5085962;28;20104;-71
2021/05/04 00:36:30;;;;;;;12.27;11.48;;;9.10;99.90;;;;;;5066863;28;20653;-71
2021/05/04 00:38:56;;;;;;;11.90;11.05;;;9.10;99.90;;;;;;5068872;28;20562;-72
2021/05/04 00:41:23;;;;;;;11.15;10.43;;;9.10;99.90;;;;;;5068162;28;20536;-71
2021/05/04 00:43:50;;;;;;;12.52;11.73;;;9.10;99.90;;;;;;5052070;28;20109;-72
2021/05/04 00:46:16;;;;;;;12.50;11.63;;;9.00;99.90;;;;;;5067234;28;20126;-72
2021/05/04 00:48:43;;;;;;;12.13;11.25;;;9.00;99.90;;;;;;5067218;28;20056;-71
2021/05/04 00:51:09;;;;;;;11.40;10.52;;;9.00;99.90;;;;;;5067796;28;20528;-71
2021/05/04 00:53:36;;;;;;;12.45;11.55;;;9.00;99.90;;;;;;5068111;28;20606;-72
2021/05/04 00:56:03;;;;;;;11.85;10.95;;;9.10;99.90;;;;;;5085767;28;20058;-71
2021/05/04 00:58:33;;;;;;;12.02;11.07;;;9.00;99.90;;;;;;5068208;28;20050;-71
2021/05/04 01:01:00;;;;;;;11.85;10.85;;;9.00;99.90;;;;;;5085562;28;20146;-72
2021/05/04 01:03:26;;;;;;;11.93;10.93;;;9.00;99.90;;;;;;5085929;28;20739;-71
2021/05/04 01:05:53;;;;;;;11.57;10.63;;;9.00;99.90;;;;;;5084661;28;20048;-72
2021/05/04 01:08:19;;;;;;;12.75;11.75;;;9.00;99.90;;;;;;5085454;28;20058;-71
2021/05/04 01:10:45;;;;;;;13.15;12.00;;;9.00;99.90;;;;;;5085514;28;20076;-71
2021/05/04 01:13:12;;;;;;;12.93;11.93;;;9.00;99.90;;;;;;5067767;28;20147;-71
2021/05/04 01:15:40;;;;;;;12.80;11.82;;;9.00;99.90;;;;;;5069301;28;20125;-71
2021/05/04 01:18:07;;;;;;;11.52;10.82;;;9.00;99.90;;;;;;5050243;28;20044;-71
2021/05/04 01:20:36;;;;;;;12.82;11.75;;;9.00;99.90;;;;;;5049786;28;20075;-71
2021/05/04 01:23:03;;;;;;;12.68;11.68;;;9.00;99.90;;;;;;5034184;28;20052;-72
2021/05/04 01:25:30;;;;;;;12.95;11.82;;;9.10;99.90;;;;;;5066990;28;20036;-72
2021/05/04 01:27:56;;;;;;;12.70;11.70;;;9.10;99.90;;;;;;5049630;28;20155;-71
2021/05/04 01:30:23;;;;;;;12.43;11.35;;;9.10;99.90;;;;;;5065262;28;20143;-71
2021/05/04 01:32:49;;;;;;;11.68;10.88;;;9.10;99.90;;;;;;5085512;28;20680;-72
2021/05/04 01:35:15;;;;;;;13.43;12.18;;;9.10;99.90;;;;;;5066246;28;20127;-71
2021/05/04 01:37:45;;;;;;;12.38;11.43;;;9.10;99.90;;;;;;5048977;28;20044;-71
2021/05/04 01:40:14;;;;;;;12.30;11.40;;;9.10;99.90;;;;;;5084561;28;20058;-72
2021/05/04 01:42:44;;;;;;;11.82;10.93;;;9.20;99.90;;;;;;5051912;28;20047;-72
2021/05/04 01:45:12;;;;;;;12.57;11.32;;;9.10;99.90;;;;;;5065082;28;20496;-71
2021/05/04 01:47:39;;;;;;;12.32;11.43;;;9.20;99.90;;;;;;5050353;28;20079;-72
2021/05/04 01:50:07;;;;;;;13.02;11.90;;;9.20;99.90;;;;;;5063019;28;20067;-71
2021/05/04 01:52:33;;;;;;;11.85;10.65;;;9.10;99.90;;;;;;5040309;28;20059;-72
2021/05/04 01:55:00;;;;;;;11.77;10.85;;;9.20;99.90;;;;;;5064269;28;20044;-73
2021/05/04 01:57:27;;;;;;;13.02;11.93;;;9.20;99.90;;;;;;5048367;28;20117;-72
2021/05/04 01:59:53;;;;;;;12.43;11.43;;;9.20;99.90;;;;;;5052652;28;20215;-72
2021/05/04 02:02:20;;;;;;;12.30;11.38;;;9.20;99.90;;;;;;5083671;28;20226;-72
2021/05/04 02:04:46;;;;;;;13.27;12.18;;;9.20;99.90;;;;;;5065974;28;20052;-72
2021/05/04 02:07:12;;;;;;;12.27;11.35;;;9.20;99.90;;;;;;5033162;28;20090;-71
2021/05/04 02:09:40;;;;;;;12.88;11.70;;;9.30;99.90;;;;;;5065810;28;20064;-72
2021/05/04 02:12:06;;;;;;;11.45;10.65;;;9.30;99.90;;;;;;5065729;28;20516;-72
2021/05/04 02:14:33;;;;;;;12.88;11.80;;;9.30;99.90;;;;;;5050021;28;20573;-72
2021/05/04 02:16:59;;;;;;;11.65;10.70;;;9.30;99.90;;;;;;5048625;28;20046;-72
2021/05/04 02:19:25;;;;;;;11.70;10.90;;;9.30;99.90;;;;;;5065826;28;20170;-71
2021/05/04 02:21:52;;;;;;;12.45;11.55;;;9.30;99.90;;;;;;5064450;28;20488;-71
2021/05/04 02:24:18;;;;;;;12.43;11.38;;;9.30;99.90;;;;;;5049622;28;20504;-71
2021/05/04 02:26:45;;;;;;;12.98;11.82;;;9.30;99.90;;;;;;5083353;28;20342;-71
2021/05/04 02:29:11;;;;;;;15.60;12.35;;;9.30;99.90;;;;;;5049475;28;20136;-73
2021/05/04 02:31:37;;;;;;;12.93;11.70;;;9.30;99.90;;;;;;5064040;28;20040;-72
2021/05/04 02:34:04;;;;;;;11.70;10.82;;;9.30;99.90;;;;;;5048824;28;20129;-71
2021/05/04 02:36:30;;;;;;;12.73;11.63;;;9.30;99.90;;;;;;5082948;28;20054;-72
2021/05/04 02:38:56;;;;;;;14.05;12.75;;;9.30;99.90;;;;;;5084330;28;20433;-71
2021/05/04 02:41:23;;;;;;;12.93;11.82;;;9.20;99.90;;;;;;5083228;28;20123;-71
2021/05/04 02:43:49;;;;;;;12.50;11.32;;;9.20;99.90;;;;;;5038842;28;20055;-72
2021/05/04 02:46:16;;;;;;;12.25;11.27;;;9.20;99.90;;;;;;5083057;28;20048;-72
2021/05/04 02:48:43;;;;;;;12.85;11.65;;;9.20;99.90;;;;;;5065188;28;20052;-72
2021/05/04 02:51:11;;;;;;;12.77;11.65;;;9.10;99.90;;;;;;5064137;28;20102;-72
2021/05/04 02:53:39;;;;;;;11.98;11.02;;;9.10;99.90;;;;;;5065052;28;20063;-72
2021/05/04 02:56:07;;;;;;;12.18;11.13;;;9.10;99.90;;;;;;5047733;28;20044;-72
2021/05/04 02:58:33;;;;;;;12.27;11.18;;;9.10;99.90;;;;;;5049185;28;20040;-72
2021/05/04 03:01:00;;;;;;;12.02;11.10;;;9.10;99.90;;;;;;5065026;28;20076;-72
2021/05/04 03:03:27;;;;;;;17.55;12.55;;;9.10;99.90;;;;;;5029168;28;20041;-72
2021/05/04 03:05:53;;;;;;;11.75;10.85;;;9.00;99.90;;;;;;5062660;28;20036;-72
2021/05/04 03:08:20;;;;;;;12.77;11.68;;;9.00;99.90;;;;;;5055003;28;20048;-72
2021/05/04 03:10:49;;;;;;;12.93;11.90;;;9.00;99.90;;;;;;5069035;28;20155;-71
2021/05/04 03:13:22;;;;;;;11.88;10.98;;;9.00;99.90;;;;;;5052658;28;20444;-71
2021/05/04 03:15:48;;;;;;;12.00;11.00;;;9.00;99.90;;;;;;5068496;28;20044;-71
2021/05/04 03:18:15;;;;;;;11.77;10.77;;;8.90;99.90;;;;;;5064468;28;20149;-72
2021/05/04 03:20:42;;;;;;;12.32;11.30;;;8.90;99.90;;;;;;5067779;28;20131;-72
2021/05/04 03:23:09;;;;;;;12.57;11.40;;;8.90;99.90;;;;;;5068141;28;20131;-72
2021/05/04 03:25:35;;;;;;;11.82;10.93;;;8.90;99.90;;;;;;5085588;28;20100;-71
2021/05/04 03:28:01;;;;;;;13.27;12.02;;;8.90;99.90;;;;;;5081913;28;20036;-72
2021/05/04 03:30:28;;;;;;;12.57;11.50;;;8.80;99.90;;;;;;5063817;28;20060;-71
2021/05/04 03:32:54;;;;;;;12.93;11.68;;;8.90;99.90;;;;;;5081559;28;20071;-72
2021/05/04 03:35:21;;;;;;;12.70;11.60;;;8.80;99.90;;;;;;5065882;28;20056;-71
2021/05/04 03:37:48;;;;;;;13.13;11.95;;;8.80;99.90;;;;;;5061016;28;20064;-72
2021/05/04 03:40:15;;;;;;;12.85;11.45;;;8.80;99.90;;;;;;5033513;28;20072;-71
2021/05/04 03:42:42;;;;;;;12.60;11.50;;;8.90;99.90;;;;;;5051482;28;20048;-72
2021/05/04 03:45:11;;;;;;;12.10;11.20;;;8.90;99.90;;;;;;5087090;28;20071;-72
2021/05/04 03:47:43;;;;;;;13.90;12.50;;;8.90;99.90;;;;;;5066842;28;20052;-71
2021/05/04 03:50:15;;;;;;;12.05;11.20;;;8.90;99.90;;;;;;5051676;28;20496;-72
2021/05/04 03:52:42;;;;;;;12.93;11.73;;;8.90;99.90;;;;;;5067802;28;20048;-72
2021/05/04 03:55:09;;;;;;;12.65;11.63;;;8.90;99.90;;;;;;5067909;28;20364;-72
2021/05/04 03:57:36;;;;;;;13.45;12.40;;;8.90;99.90;;;;;;5050557;28;20048;-71
2021/05/04 04:00:05;;;;;;;12.38;11.38;;;8.90;99.90;;;;;;5050358;28;20040;-71
2021/05/04 04:02:33;;;;;;;13.57;12.48;;;9.00;99.90;;;;;;5067760;28;20051;-71
2021/05/04 04:05:00;;;;;;;12.40;11.52;;;9.00;99.90;;;;;;5067840;28;20044;-73
2021/05/04 04:07:26;;;;;;;12.65;11.70;;;9.10;99.90;;;;;;5033218;28;20120;-72
2021/05/04 04:09:52;;;;;;;11.82;10.93;;;9.20;99.90;;;;;;5067189;28;20056;-72
2021/05/04 04:12:19;;;;;;;10.73;10.02;;;9.20;99.90;;;;;;5066922;28;20336;-72
2021/05/04 04:14:45;;;;;;;10.25;9.45;;;9.30;99.90;;;;;;5086107;28;20062;-71
2021/05/04 04:17:11;;;;;;;10.20;9.32;;;9.90;99.90;;;;;;5050671;28;20145;-73
2021/05/04 04:19:38;;;;;;;10.15;9.38;;;9.90;99.90;;;;;;5067066;28;20040;-72
2021/05/04 04:22:05;;;;;;;9.88;9.18;;;9.80;99.90;;;;;;5084809;28;20067;-72
2021/05/04 04:24:31;;;;;;;9.35;8.65;;;9.70;99.90;;;;;;5067688;28;20056;-71
2021/05/04 04:26:57;;;;;;;11.60;10.90;;;9.50;99.90;;;;;;5034189;28;20552;-72
2021/05/04 04:29:24;;;;;;;11.57;10.45;;;9.40;99.90;;;;;;5066452;28;20048;-71
2021/05/04 04:31:50;;;;;;;10.93;10.13;;;9.20;99.90;;;;;;5033538;28;20486;-72
2021/05/04 04:34:17;;;;;;;10.57;9.95;;;9.10;99.90;;;;;;5068039;28;20056;-72
2021/05/04 04:36:43;;;;;;;11.63;10.70;;;8.90;99.90;;;;;;5066683;28;20051;-73
2021/05/04 04:39:09;;;;;;;11.30;10.38;;;8.80;99.90;;;;;;5067520;28;20032;-73
2021/05/04 04:41:36;;;;;;;11.18;10.48;;;8.80;99.90;;;;;;5085645;28;20163;-73
2021/05/04 04:44:03;;;;;;;11.55;10.68;;;8.70;99.90;;;;;;5085087;28;20076;-73
2021/05/04 04:46:39;;;;;;;10.75;10.10;;;8.60;99.90;;;;;;5050417;28;20362;-72
2021/05/04 04:49:08;;;;;;;11.82;10.82;;;8.50;99.90;;;;;;5048021;28;20127;-73
2021/05/04 04:51:35;;;;;;;10.77;9.95;;;8.40;99.90;;;;;;5065068;28;20129;-73
2021/05/04 04:54:02;;;;;;;10.40;9.48;;;8.20;99.90;;;;;;5050146;28;20512;-72
2021/05/04 04:56:29;;;;;;;10.07;9.27;;;8.20;99.90;;;;;;5066739;28;20052;-72
2021/05/04 04:58:55;;;;;;;11.30;10.40;;;8.10;99.90;;;;;;5066825;28;20673;-73
2021/05/04 05:01:22;;;;;;;10.57;9.55;;;8.00;99.90;;;;;;5066421;28;20372;-73
2021/05/04 05:03:48;;;;;;;8.95;7.95;;;7.90;99.90;;;;;;5067751;28;20079;-72
2021/05/04 05:06:19;;;;;;;9.32;8.23;;;7.90;99.90;;;;;;5083983;28;20044;-72
2021/05/04 05:08:48;;;;;;;8.68;8.07;;;7.80;99.90;;;;;;5049040;28;20054;-73
2021/05/04 05:11:15;;;;;;;8.13;7.53;;;7.80;99.90;;;;;;5032770;28;20064;-72
2021/05/04 05:13:43;;;;;;;8.88;8.18;;;7.80;99.90;;;;;;5067164;28;20473;-72
2021/05/04 05:16:10;;;;;;;9.02;8.32;;;7.80;99.90;;;;;;5048827;28;20087;-70
2021/05/04 05:18:36;;;;;;;13.07;12.07;;;7.80;99.90;;;;;;5084862;28;20105;-72
2021/05/04 05:21:02;;;;;;;8.70;8.00;;;7.80;99.90;;;;;;5050244;28;20036;-72
2021/05/04 05:23:29;;;;;;;7.80;7.20;;;7.80;99.90;;;;;;5064679;28;20087;-73
2021/05/04 05:25:57;;;;;;;8.90;8.15;;;7.70;99.90;;;;;;5079374;28;20047;-72
2021/05/04 05:28:24;;;;;;;8.63;7.72;;;7.70;99.90;;;;;;5050011;28;20044;-71
2021/05/04 05:30:52;;;;;;;8.23;7.43;;;7.70;99.90;;;;;;5049865;28;20048;-72
2021/05/04 05:33:22;;;;;;;7.70;7.07;;;7.70;99.90;;;;;;5085911;28;20441;-72
2021/05/04 05:35:49;;;;;;;7.68;6.93;;;7.70;99.90;;;;;;5065797;28;20124;-72
2021/05/04 05:38:27;;;;;;;7.88;7.32;;;7.60;99.90;;;;;;5050078;28;20139;-71
2021/05/04 05:40:54;;;;;;;8.70;8.00;;;7.60;99.90;;;;;;5085238;28;20489;-71
2021/05/04 05:43:22;;;;;;;10.57;9.98;;;7.50;99.90;;;;;;5067434;28;20264;-72
2021/05/04 05:45:48;;;;;;;11.73;10.57;;;7.50;99.90;;;;;;5066651;28;20538;-71
2021/05/04 05:48:15;;;;;;;10.32;9.30;;;7.40;99.90;;;;;;5045239;28;20455;-72
2021/05/04 05:50:42;;;;;;;11.32;10.30;;;7.20;99.90;;;;;;5065456;28;20209;-71
2021/05/04 05:53:08;;;;;;;9.60;8.88;;;7.20;99.90;;;;;;5065120;28;20097;-71
2021/05/04 05:55:34;;;;;;;6.95;6.35;;;7.10;99.90;;;;;;5064939;28;20069;-71
2021/05/04 05:58:01;;;;;;;5.88;5.32;;;7.10;99.90;;;;;;5067067;28;20090;-72
2021/05/04 06:00:27;;;;;;;6.75;6.03;;;7.10;99.90;;;;;;5049349;28;20104;-72
2021/05/04 06:02:53;;;;;;;7.30;6.70;;;7.10;99.90;;;;;;5050238;28;20048;-73
2021/05/04 06:05:20;;;;;;;8.73;7.55;;;7.10;99.90;;;;;;5049273;28;20052;-72
2021/05/04 06:07:51;;;;;;;7.18;6.57;;;7.20;99.90;;;;;;5067731;28;20117;-71
2021/05/04 06:10:17;;;;;;;7.75;7.05;;;7.20;99.90;;;;;;5032014;28;20503;-73
2021/05/04 06:12:44;;;;;;;7.20;6.45;;;7.30;99.90;;;;;;5049736;28;20542;-71
2021/05/04 06:15:11;;;;;;;7.55;6.88;;;7.30;99.90;;;;;;5066083;28;20497;-71
2021/05/04 06:17:37;;;;;;;7.65;7.00;;;7.40;99.90;;;;;;5049634;28;20564;-71
2021/05/04 06:20:04;;;;;;;7.68;7.07;;;7.50;99.90;;;;;;5084449;28;20362;-71
2021/05/04 06:22:30;;;;;;;8.60;8.10;;;7.50;99.90;;;;;;5065559;28;20127;-72
2021/05/04 06:24:57;;;;;;;8.40;7.80;;;7.50;99.90;;;;;;5066734;28;20131;-72
2021/05/04 06:27:23;;;;;;;7.18;6.60;;;7.50;99.90;;;;;;5049009;28;20048;-71
2021/05/04 06:29:49;;;;;;;7.65;7.13;;;7.60;99.90;;;;;;5083357;28;20105;-71
2021/05/04 06:32:16;;;;;;;9.13;6.72;;;7.60;99.90;;;;;;5029976;28;20497;-71
2021/05/04 06:34:43;;;;;;;7.65;7.03;;;7.70;99.90;;;;;;5065393;28;20183;-71
2021/05/04 06:37:09;;;;;;;8.70;7.90;;;7.80;99.90;;;;;;5083882;28;20101;-73
2021/05/04 06:39:37;;;;;;;8.48;7.88;;;7.80;99.90;;;;;;5060715;28;20040;-73
2021/05/04 06:42:03;;;;;;;8.75;7.80;;;7.90;99.90;;;;;;5056140;28;20148;-72
2021/05/04 06:44:30;;;;;;;7.53;7.03;;;7.90;99.90;;;;;;5083326;28;20135;-71
2021/05/04 06:46:56;;;;;;;7.85;7.25;;;7.90;99.90;;;;;;5083483;28;20040;-72
2021/05/04 06:49:23;;;;;;;8.18;7.68;;;8.00;99.90;;;;;;5065910;28;20473;-72
2021/05/04 06:51:49;;;;;;;8.25;7.75;;;8.00;99.90;;;;;;5048895;28;20099;-72
2021/05/04 06:54:15;;;;;;;8.95;8.35;;;8.00;99.90;;;;;;5066532;28;20105;-72
2021/05/04 06:56:42;;;;;;;8.63;8.02;;;8.00;99.90;;;;;;5065805;28;20143;-73
2021/05/04 06:59:08;;;;;;;8.60;8.20;;;8.10;99.90;;;;;;5055684;28;20140;-72
2021/05/04 07:01:34;;;;;;;8.55;8.00;;;8.10;99.90;;;;;;5065872;28;20373;-72
2021/05/04 07:04:01;;;;;;;8.80;8.15;;;8.10;99.90;;;;;;5065382;28;20105;-73
2021/05/04 07:06:27;;;;;;;9.00;8.40;;;8.10;99.90;;;;;;5065349;28;20494;-72
2021/05/04 07:08:53;;;;;;;8.30;7.65;;;8.10;99.90;;;;;;5066375;28;20052;-72
2021/05/04 07:11:20;;;;;;;8.70;8.10;;;8.10;99.90;;;;;;5065864;28;20052;-73
2021/05/04 07:13:46;;;;;;;8.73;8.20;;;8.20;99.90;;;;;;5084543;28;20305;-72
2021/05/04 07:16:12;;;;;;;8.13;7.43;;;8.20;99.90;;;;;;5065180;28;20641;-73
2021/05/04 07:18:41;;;;;;;7.60;6.85;;;8.30;99.90;;;;;;5048600;28;20044;-71
2021/05/04 07:21:09;;;;;;;6.45;5.93;;;8.30;99.90;;;;;;5047956;28;20103;-71
2021/05/04 07:23:36;;;;;;;6.03;5.57;;;8.30;99.90;;;;;;5048366;28;20044;-71
2021/05/04 07:26:04;;;;;;;17.25;5.25;;;8.30;99.90;;;;;;5063341;28;20369;-71
2021/05/04 07:28:31;;;;;;;4.85;4.38;;;8.30;99.90;;;;;;5048952;28;20303;-71
2021/05/04 07:30:58;;;;;;;4.85;4.53;;;8.30;99.90;;;;;;5060488;28;20068;-70
2021/05/04 07:33:24;;;;;;;4.55;4.15;;;8.30;99.90;;;;;;5040332;28;20500;-72
2021/05/04 07:35:50;;;;;;;4.70;3.97;;;8.30;99.90;;;;;;5064719;28;20040;-71
2021/05/04 07:38:17;;;;;;;3.83;3.47;;;8.40;99.90;;;;;;5047965;28;20433;-72
2021/05/04 07:40:43;;;;;;;4.13;2.92;;;8.50;99.90;;;;;;5048552;28;20127;-71
2021/05/04 07:43:10;;;;;;;6.00;4.30;;;8.50;99.90;;;;;;5081668;28;20052;-71
2021/05/04 07:45:36;;;;;;;4.47;4.07;;;8.60;99.90;;;;;;5061557;28;20127;-71
2021/05/04 07:48:04;;;;;;;3.88;3.47;;;8.70;99.90;;;;;;5062473;28;20075;-71
2021/05/04 07:50:33;;;;;;;4.47;4.18;;;8.80;99.90;;;;;;5051846;28;20161;-72
2021/05/04 07:52:59;;;;;;;5.03;4.53;;;8.70;99.90;;;;;;5055721;28;20054;-71
2021/05/04 07:55:26;;;;;;;4.78;4.47;;;8.80;99.90;;;;;;5064154;28;20044;-71
2021/05/04 07:57:52;;;;;;;4.72;4.40;;;8.80;99.90;;;;;;5075451;28;20059;-71
2021/05/04 08:00:18;;;;;;;4.50;4.20;;;8.90;99.90;;;;;;5082503;28;20110;-71
2021/05/04 08:02:45;;;;;;;4.97;3.90;;;8.90;99.90;;;;;;5091621;28;20391;-72
2021/05/04 08:05:13;;;;;;;4.22;3.88;;;9.00;99.90;;;;;;5053501;28;20117;-71
2021/05/04 08:07:39;;;;;;;4.20;3.90;;;9.10;99.90;;;;;;5054139;28;20058;-71
2021/05/04 08:10:07;;;;;;;3.80;3.50;;;9.10;99.90;;;;;;5069603;28;20147;-72
2021/05/04 08:12:34;;;;;;;3.97;3.75;;;9.10;99.90;;;;;;5055154;28;20063;-72
2021/05/04 08:15:01;;;;;;;4.35;4.15;;;9.20;99.90;;;;;;5053335;28;20051;-71
2021/05/04 08:17:30;;;;;;;4.72;4.32;;;9.20;99.90;;;;;;5065332;28;20048;-70
2021/05/04 08:20:00;;;;;;;3.75;3.47;;;9.20;99.90;;;;;;5095044;28;20055;-71
2021/05/04 08:22:26;;;;;;;5.60;4.38;;;9.10;99.90;;;;;;5026204;28;20043;-71
2021/05/04 08:24:55;;;;;;;5.60;4.78;;;9.10;99.90;;;;;;5043004;28;20048;-71
2021/05/04 08:27:21;;;;;;;5.90;4.43;;;9.10;99.90;;;;;;5057864;28;20067;-72
2021/05/04 08:29:48;;;;;;;3.80;3.60;;;9.10;99.90;;;;;;5076982;28;20067;-72
2021/05/04 08:32:14;;;;;;;5.00;4.53;;;9.00;99.90;;;;;;5044409;28;20044;-72
2021/05/04 08:34:41;;;;;;;4.53;4.22;;;9.00;99.90;;;;;;5098101;28;20051;-72
2021/05/04 08:37:08;;;;;;;4.80;4.40;;;9.00;99.90;;;;;;5098121;28;20063;-72
2021/05/04 08:39:35;;;;;;;4.97;4.57;;;9.00;99.90;;;;;;5079895;28;20059;-72
2021/05/04 08:42:02;;;;;;;4.38;4.07;;;8.90;99.90;;;;;;5052497;28;20048;-72
2021/05/04 08:44:29;;;;;;;4.30;4.10;;;8.80;99.90;;;;;;5052779;28;20210;-72
2021/05/04 08:46:56;;;;;;;4.75;4.32;;;8.80;99.90;;;;;;5043507;28;20056;-71
2021/05/04 08:49:23;;;;;;;4.40;4.18;;;8.80;99.90;;;;;;5047022;28;20040;-72
2021/05/04 08:51:50;;;;;;;4.57;4.28;;;8.80;99.90;;;;;;5035436;28;20362;-72
2021/05/04 08:54:17;;;;;;;4.28;4.07;;;8.80;99.90;;;;;;5051619;28;20133;-73
2021/05/04 08:56:43;;;;;;;5.03;4.63;;;8.80;99.90;;;;;;5079180;28;20490;-73
2021/05/04 08:59:11;;;;;;;4.95;4.63;;;8.80;99.90;;;;;;5064715;28;20054;-72
2021/05/04 09:01:38;;;;;;;4.50;4.30;;;8.80;99.90;;;;;;5059310;28;20120;-72
2021/05/04 09:04:23;;;;;;;5.30;5.00;;;8.90;99.90;;;;;;5048562;28;20052;-74
2021/05/04 09:06:52;;;;;;;5.18;4.97;;;9.00;99.90;;;;;;5054278;28;20553;-73
2021/05/04 09:09:25;;;;;;;5.80;5.50;;;9.10;99.90;;;;;;5049880;28;20385;-72
2021/05/04 09:12:04;;;;;;;5.90;5.60;;;9.20;99.90;;;;;;5066654;28;20233;-72
2021/05/04 09:14:54;;;;;;;6.20;5.80;;;9.20;99.90;;;;;;5067246;28;20052;-72
2021/05/04 09:17:25;;;;;;;6.82;6.32;;;9.30;99.90;;;;;;5084066;28;20327;-73
2021/05/04 09:20:28;;;;;;;6.32;5.90;;;9.30;99.90;;;;;;5034741;28;20054;-73
2021/05/04 09:23:07;;;;;;;6.32;6.05;;;9.40;99.90;;;;;;5067228;28;20108;-73
2021/05/04 09:25:35;;;;;;;6.00;5.70;;;9.50;99.90;;;;;;5037190;28;20482;-74
2021/05/04 09:28:09;;;;;;;5.60;5.20;;;9.30;99.90;;;;;;5068823;28;20051;-71
2021/05/04 09:30:36;;;;;;;7.03;6.57;;;9.30;99.90;;;;;;5035363;28;20075;-72
2021/05/04 09:33:11;;;;;;;7.20;6.65;;;9.30;99.90;;;;;;5015112;28;20489;-72
2021/05/04 09:35:37;;;;;;;7.63;7.10;;;9.60;99.90;;;;;;5047557;28;20175;-72
2021/05/04 09:38:06;;;;;;;7.88;7.38;;;10.00;99.90;;;;;;5049099;28;20353;-72
2021/05/04 09:40:36;;;;;;;8.73;8.23;;;10.50;99.90;;;;;;5031184;28;20056;-73
2021/05/04 09:43:08;;;;;;;9.18;8.60;;;10.70;99.90;;;;;;5050288;28;20047;-72
2021/05/04 09:45:38;;;;;;;9.65;9.23;;;11.00;99.90;;;;;;5084516;28;20048;-72
2021/05/04 09:48:12;;;;;;;8.68;8.27;;;11.00;99.90;;;;;;5048847;28;20043;-73
2021/05/04 09:51:03;;;;;;;9.48;8.60;;;10.80;99.90;;;;;;5033808;28;20109;-73
2021/05/04 09:53:39;;;;;;;8.52;8.02;;;11.00;99.90;;;;;;5049953;28;20079;-73
2021/05/04 09:56:06;;;;;;;8.48;8.18;;;11.10;99.90;;;;;;5049120;28;20483;-72
2021/05/04 09:58:40;;;;;;;9.70;9.00;;;10.90;99.90;;;;;;5067266;28;20276;-73
2021/05/04 10:01:09;;;;;;;8.32;7.93;;;10.80;99.90;;;;;;5065943;28;20052;-72
2021/05/04 10:03:36;;;;;;;8.57;8.07;;;10.60;99.90;;;;;;5085552;28;20346;-71
2021/05/04 10:06:05;;;;;;;8.35;7.95;;;10.40;99.90;;;;;;5048671;28;20177;-73
2021/05/04 10:08:33;;;;;;;8.32;7.88;;;10.30;99.90;;;;;;5066581;28;20105;-72
2021/05/04 10:11:08;;;;;;;9.05;8.52;;;10.40;99.90;;;;;;5066303;28;20222;-72
2021/05/04 10:13:37;;;;;;;9.00;8.52;;;10.30;99.90;;;;;;5051530;28;20048;-72
2021/05/04 10:16:05;;;;;;;9.10;8.43;;;10.60;99.90;;;;;;5065728;28;20048;-72
2021/05/04 10:18:32;;;;;;;9.00;8.60;;;10.70;99.90;;;;;;5063899;28;20050;-72
2021/05/04 10:21:01;;;;;;;9.30;8.80;;;10.80;99.90;;;;;;5029112;28;20052;-72
2021/05/04 10:23:30;;;;;;;9.30;8.80;;;10.60;99.90;;;;;;5045669;28;20453;-73
2021/05/04 10:26:14;;;;;;;10.35;9.63;;;10.70;99.90;;;;;;5043975;28;20044;-72
2021/05/04 10:28:44;;;;;;;8.75;8.35;;;10.90;99.90;;;;;;5032495;28;20068;-71
2021/05/04 10:31:13;;;;;;;9.23;8.50;;;10.80;99.90;;;;;;5047194;28;20098;-72
2021/05/04 10:33:41;;;;;;;9.50;8.65;;;10.80;99.90;;;;;;5064892;28;20067;-72
2021/05/04 10:36:30;;;;;;;7.95;7.65;;;10.80;99.90;;;;;;5065425;28;20126;-72
2021/05/04 10:38:58;;;;;;;9.35;8.85;;;10.70;99.90;;;;;;5065702;28;20047;-72
2021/05/04 10:41:24;;;;;;;8.05;7.65;;;10.80;99.90;;;;;;5064818;28;20063;-72
2021/05/04 10:44:08;;;;;;;8.15;7.60;;;10.70;99.90;;;;;;5065931;28;20048;-72
2021/05/04 10:46:40;;;;;;;8.43;8.00;;;10.50;99.90;;;;;;5065305;28;20044;-72
2021/05/04 10:49:15;;;;;;;7.93;7.47;;;10.40;99.90;;;;;;5061009;28;20044;-71
2021/05/04 10:51:53;;;;;;;8.30;7.93;;;10.40;99.90;;;;;;5078420;28;20098;-72
2021/05/04 10:54:21;;;;;;;8.88;8.48;;;10.40;99.90;;;;;;5047705;28;20074;-72
2021/05/04 10:56:58;;;;;;;8.73;8.00;;;10.40;99.90;;;;;;5067681;28;20478;-72
2021/05/04 10:59:25;;;;;;;8.63;8.02;;;10.50;99.90;;;;;;5048998;28;20090;-72
2021/05/04 11:02:14;;;;;;;8.52;8.10;;;10.50;99.90;;;;;;5065778;28;20055;-72
2021/05/04 11:04:44;;;;;;;8.18;7.68;;;10.70;99.90;;;;;;5038731;28;20152;-73
2021/05/04 11:07:11;;;;;;;7.82;7.07;;;11.00;99.90;;;;;;5048081;28;20043;-72
2021/05/04 11:09:40;;;;;;;7.47;7.07;;;11.00;99.90;;;;;;5064495;28;20052;-72
2021/05/04 11:12:08;;;;;;;7.65;7.25;;;10.90;99.90;;;;;;5083446;28;20052;-72
2021/05/04 11:14:39;;;;;;;8.32;7.82;;;10.90;99.90;;;;;;5065592;28;20586;-73
2021/05/04 11:17:07;;;;;;;8.23;7.80;;;10.90;99.90;;;;;;5047752;28;20055;-72
2021/05/04 11:19:39;;;;;;;8.75;8.15;;;11.00;99.90;;;;;;5082816;28;20367;-72
2021/05/04 11:22:08;;;;;;;8.18;7.47;;;11.00;99.90;;;;;;5063781;28;20115;-72
2021/05/04 11:24:48;;;;;;;7.78;7.38;;;10.90;99.90;;;;;;5083426;28;20500;-72
2021/05/04 11:27:23;;;;;;;7.53;7.03;;;10.80;99.90;;;;;;5048800;28;20036;-72
2021/05/04 11:29:52;;;;;;;7.78;7.35;;;10.80;99.90;;;;;;5063227;28;20220;-72
2021/05/04 11:32:24;;;;;;;6.38;6.07;;;10.70;99.90;;;;;;5035032;28;20052;-73
2021/05/04 11:34:59;;;;;;;5.63;5.32;;;10.30;99.90;;;;;;5068263;28;20056;-72
2021/05/04 11:37:27;;;;;;;6.60;6.20;;;10.10;99.90;;;;;;5085335;28;20048;-72
2021/05/04 11:40:03;;;;;;;6.13;5.70;;;10.00;99.90;;;;;;5086713;28;20048;-71
2021/05/04 11:42:38;;;;;;;6.30;6.00;;;10.00;99.90;;;;;;5051804;28;20036;-72
2021/05/04 11:45:16;;;;;;;6.43;5.93;;;10.10;99.90;;;;;;5050595;28;20128;-72
2021/05/04 11:47:45;;;;;;;7.68;6.00;;;10.00;99.90;;;;;;5068056;28;20056;-72
2021/05/04 11:50:25;;;;;;;6.05;5.63;;;10.00;99.90;;;;;;5067737;28;20466;-71
2021/05/04 11:52:56;;;;;;;6.55;6.03;;;9.90;99.90;;;;;;5050781;28;20135;-72
2021/05/04 11:55:25;;;;;;;5.80;5.40;;;9.90;99.90;;;;;;5045271;28;20094;-73
2021/05/04 11:58:02;;;;;;;5.20;4.75;;;9.80;99.90;;;;;;5048057;28;20133;-73
2021/05/04 12:00:30;;;;;;;6.60;5.05;;;9.70;99.90;;;;;;5059185;28;20064;-73
2021/05/04 12:03:12;;;;;;;4.53;4.13;;;9.60;99.90;;;;;;5048792;28;20151;-72
2021/05/04 12:05:39;;;;;;;4.90;4.35;;;9.40;99.90;;;;;;5086338;28;20055;-73
2021/05/04 12:08:07;;;;;;;5.40;4.90;;;9.40;99.90;;;;;;5051497;28;20060;-72
2021/05/04 12:10:38;;;;;;;7.25;4.97;;;9.50;99.90;;;;;;5085746;28;20558;-72
2021/05/04 12:13:10;;;;;;;5.38;5.07;;;9.70;99.90;;;;;;5086995;28;20087;-72
2021/05/04 12:15:41;;;;;;;5.70;5.20;;;10.00;99.90;;;;;;5067644;28;20140;-72
2021/05/04 12:18:19;;;;;;;9.75;5.80;;;10.30;99.90;;;;;;5086037;28;20052;-72
2021/05/04 12:20:57;;;;;;;6.55;5.95;;;10.40;99.90;;;;;;5066903;28;20474;-72
2021/05/04 12:23:27;;;;;;;6.40;6.00;;;10.50;99.90;;;;;;5047215;28;20071;-72
2021/05/04 12:26:06;;;;;;;5.00;4.60;;;10.60;99.90;;;;;;5060197;28;20112;-72
2021/05/04 12:28:34;;;;;;;5.80;4.50;;;10.90;99.90;;;;;;5051417;28;20090;-73
2021/05/04 12:31:09;;;;;;;5.25;4.75;;;11.20;99.90;;;;;;5066903;28;20079;-72
2021/05/04 12:33:38;;;;;;;7.55;6.03;;;11.60;99.90;;;;;;5067400;28;20105;-71
2021/05/04 12:36:08;;;;;;;7.40;7.00;;;11.90;99.90;;;;;;5034058;28;20052;-73
2021/05/04 12:38:47;;;;;;;7.22;6.70;;;12.10;99.90;;;;;;5051736;28;20332;-73
2021/05/04 12:41:20;;;;;;;7.60;6.97;;;12.10;99.90;;;;;;5049668;28;20040;-72
2021/05/04 12:46:44;;;;;;;10.02;8.32;;;11.40;99.90;;;;;;5050104;28;20423;-72
2021/05/04 12:49:11;;;;;;;8.52;7.70;;;11.50;99.90;;;;;;5050655;28;20129;-73
2021/05/04 12:51:43;;;;;;;8.05;7.22;;;11.90;99.90;;;;;;5067151;28;20048;-73
2021/05/04 12:54:20;;;;;;;8.15;7.53;;;12.00;99.90;;;;;;5065952;28;20052;-72
2021/05/04 12:56:48;;;;;;;8.23;7.32;;;11.90;99.90;;;;;;5066212;28;20060;-73